createdAt,value
2019-01-21T00:00:04.349Z,25.01
2019-01-21T00:01:04.292Z,25.01
2019-01-21T00:02:04.246Z,25.14
2019-01-21T00:03:04.193Z,25.13
2019-01-21T00:04:04.171Z,25.16
2019-01-21T00:05:04.138Z,25.16
2019-01-21T00:06:04.067Z,25.16
2019-01-21T00:07:04.029Z,25.08
2019-01-21T00:08:03.982Z,25.08
2019-01-21T00:09:03.947Z,25.14
2019-01-21T00:10:03.893Z,25.03
2019-01-21T00:11:03.850Z,25.13
2019-01-21T00:12:03.812Z,25.17
2019-01-21T00:13:03.762Z,25.13
2019-01-21T00:14:03.714Z,25.17
2019-01-21T00:15:03.665Z,25.14
2019-01-21T00:16:03.620Z,25.29
2019-01-21T00:17:03.589Z,25.21
2019-01-21T00:18:03.544Z,25.31
2019-01-21T00:19:03.492Z,25.29
2019-01-21T00:20:03.441Z,25.31
2019-01-21T00:21:03.409Z,25.31
2019-01-21T00:22:03.343Z,25.29
2019-01-21T00:23:03.301Z,25.28
2019-01-21T00:24:03.275Z,25.28
2019-01-21T00:25:03.233Z,25.29
2019-01-21T00:26:03.189Z,25.28
2019-01-21T00:27:03.131Z,25.26
2019-01-21T00:28:03.097Z,25.25
2019-01-21T00:29:03.031Z,25.29
2019-01-21T00:30:02.986Z,25.17
2019-01-21T00:31:02.954Z,25.17
2019-01-21T00:32:02.910Z,25.16
2019-01-21T00:33:02.865Z,25.21
2019-01-21T00:34:02.820Z,25.31
2019-01-21T00:35:02.784Z,25.32
2019-01-21T00:36:02.718Z,25.41
2019-01-21T00:37:03.527Z,25.40
2019-01-21T00:38:02.642Z,25.33
2019-01-21T00:39:02.599Z,25.32
2019-01-21T00:40:02.554Z,25.35
2019-01-21T00:41:02.529Z,25.32
2019-01-21T00:42:02.459Z,25.38
2019-01-21T00:43:02.414Z,25.43
2019-01-21T00:44:02.375Z,25.44
2019-01-21T00:45:02.338Z,25.41
2019-01-21T00:46:02.305Z,25.33
2019-01-21T00:47:02.249Z,25.33
2019-01-21T00:48:02.199Z,25.38
2019-01-21T00:49:02.152Z,25.32
2019-01-21T00:50:02.115Z,25.32
2019-01-21T00:51:02.064Z,25.25
2019-01-21T00:52:02.026Z,25.31
2019-01-21T00:53:01.960Z,25.35
2019-01-21T00:54:01.937Z,25.25
2019-01-21T00:55:01.872Z,25.32
2019-01-21T00:56:01.896Z,25.29
2019-01-21T00:57:01.790Z,25.25
2019-01-21T00:58:01.745Z,25.29
2019-01-21T00:59:01.692Z,25.25
2019-01-21T01:00:01.679Z,25.26
2019-01-21T01:01:01.603Z,25.23
2019-01-21T01:02:01.580Z,25.21
2019-01-21T01:03:01.537Z,25.16
2019-01-21T01:04:01.477Z,25.13
2019-01-21T01:05:01.497Z,25.16
2019-01-21T01:06:01.401Z,25.11
2019-01-21T01:07:01.359Z,25.18
2019-01-21T01:08:01.293Z,25.16
2019-01-21T01:09:01.246Z,25.18
2019-01-21T01:10:01.231Z,25.22
2019-01-21T01:11:01.157Z,25.29
2019-01-21T01:12:01.120Z,25.22
2019-01-21T01:13:01.105Z,25.13
2019-01-21T01:14:01.031Z,25.13
2019-01-21T01:15:00.993Z,25.11
2019-01-21T01:16:00.943Z,25.01
2019-01-21T01:17:00.901Z,24.98
2019-01-21T01:18:00.867Z,25.03
2019-01-21T01:19:00.814Z,25.07
2019-01-21T01:20:00.776Z,25.11
2019-01-21T01:21:00.723Z,25.13
2019-01-21T01:22:00.688Z,25.18
2019-01-21T01:23:00.679Z,25.23
2019-01-21T01:24:00.584Z,25.16
2019-01-21T01:25:00.531Z,25.04
2019-01-21T01:26:00.499Z,24.98
2019-01-21T01:27:00.478Z,25.07
2019-01-21T01:28:00.420Z,25.06
2019-01-21T01:29:00.374Z,24.99
2019-01-21T01:30:00.322Z,25.04
2019-01-21T01:31:00.284Z,25.04
2019-01-21T01:32:00.241Z,24.99
2019-01-21T01:33:00.189Z,24.89
2019-01-21T01:34:00.150Z,25.06
2019-01-21T01:35:00.263Z,24.98
2019-01-21T01:36:00.049Z,24.88
2019-01-21T01:36:59.945Z,24.88
2019-01-21T01:37:59.972Z,24.84
2019-01-21T01:38:59.929Z,24.84
2019-01-21T01:39:59.885Z,24.69
2019-01-21T01:40:59.837Z,24.76
2019-01-21T01:41:59.783Z,24.78
2019-01-21T01:42:59.750Z,24.78
2019-01-21T01:43:59.698Z,24.86
2019-01-21T01:44:59.645Z,24.88
2019-01-21T01:45:59.604Z,24.76
2019-01-21T01:46:59.565Z,24.91
2019-01-21T01:47:59.523Z,24.89
2019-01-21T01:48:59.466Z,24.88
2019-01-21T01:49:59.425Z,24.98
2019-01-21T01:50:59.453Z,25.06
2019-01-21T01:51:59.356Z,25.10
2019-01-21T01:52:59.286Z,25.04
2019-01-21T01:53:59.237Z,24.95
2019-01-21T01:54:59.202Z,24.89
2019-01-21T01:55:59.143Z,24.84
2019-01-21T01:56:59.099Z,24.85
2019-01-21T01:57:59.075Z,24.86
2019-01-21T01:58:59.025Z,24.93
2019-01-21T01:59:58.973Z,24.91
2019-01-21T02:00:58.932Z,24.91
2019-01-21T02:01:58.875Z,24.85
2019-01-21T02:02:58.851Z,24.78
2019-01-21T02:03:58.798Z,24.77
2019-01-21T02:04:58.748Z,24.84
2019-01-21T02:05:58.698Z,24.84
2019-01-21T02:06:58.664Z,24.85
2019-01-21T02:07:58.619Z,24.78
2019-01-21T02:08:58.576Z,24.86
2019-01-21T02:09:58.516Z,24.81
2019-01-21T02:10:58.471Z,24.77
2019-01-21T02:11:58.449Z,24.77
2019-01-21T02:12:58.403Z,24.78
2019-01-21T02:13:58.360Z,24.78
2019-01-21T02:14:58.293Z,24.88
2019-01-21T02:15:58.268Z,24.88
2019-01-21T02:16:58.215Z,24.88
2019-01-21T02:17:58.163Z,24.91
2019-01-21T02:18:58.136Z,24.89
2019-01-21T02:19:58.072Z,25.03
2019-01-21T02:20:58.036Z,24.99
2019-01-21T02:21:57.986Z,25.14
2019-01-21T02:22:57.948Z,25.16
2019-01-21T02:23:57.917Z,25.22
2019-01-21T02:24:57.853Z,25.22
2019-01-21T02:25:57.798Z,25.26
2019-01-21T02:26:57.762Z,25.28
2019-01-21T02:27:57.719Z,25.25
2019-01-21T02:28:57.673Z,25.17
2019-01-21T02:29:57.628Z,25.18
2019-01-21T02:30:57.575Z,25.13
2019-01-21T02:31:57.552Z,25.14
2019-01-21T02:32:57.499Z,25.17
2019-01-21T02:33:57.455Z,25.29
2019-01-21T02:34:57.414Z,25.26
2019-01-21T02:35:57.365Z,25.33
2019-01-21T02:36:57.328Z,25.28
2019-01-21T02:37:57.281Z,25.25
2019-01-21T02:38:57.230Z,25.35
2019-01-21T02:39:57.196Z,25.31
2019-01-21T02:40:57.150Z,25.35
2019-01-21T02:41:57.092Z,25.44
2019-01-21T02:42:57.049Z,25.46
2019-01-21T02:43:57.016Z,25.50
2019-01-21T02:44:56.962Z,25.51
2019-01-21T02:45:56.917Z,25.55
2019-01-21T02:46:56.881Z,25.51
2019-01-21T02:48:00.198Z,25.46
2019-01-21T02:48:56.792Z,25.51
2019-01-21T02:49:56.748Z,25.55
2019-01-21T02:50:56.707Z,25.51
2019-01-21T02:51:56.638Z,25.51
2019-01-21T02:52:56.614Z,25.53
2019-01-21T02:53:56.565Z,25.50
2019-01-21T02:54:56.507Z,25.51
2019-01-21T02:55:56.460Z,25.50
2019-01-21T02:56:56.415Z,25.50
2019-01-21T02:57:56.380Z,25.54
2019-01-21T02:58:56.349Z,25.50
2019-01-21T02:59:56.296Z,25.65
2019-01-21T03:00:56.276Z,25.63
2019-01-21T03:01:56.194Z,25.63
2019-01-21T03:02:56.148Z,25.55
2019-01-21T03:03:56.123Z,25.58
2019-01-21T03:04:56.067Z,25.47
2019-01-21T03:05:56.014Z,25.46
2019-01-21T03:06:55.978Z,25.47
2019-01-21T03:07:55.941Z,25.40
2019-01-21T03:08:55.897Z,25.47
2019-01-21T03:09:55.853Z,25.44
2019-01-21T03:10:55.802Z,25.44
2019-01-21T03:11:55.780Z,25.43
2019-01-21T03:12:55.724Z,25.41
2019-01-21T03:13:55.658Z,25.40
2019-01-21T03:14:55.628Z,25.40
2019-01-21T03:15:55.573Z,25.40
2019-01-21T03:16:55.546Z,25.43
2019-01-21T03:17:55.497Z,25.36
2019-01-21T03:18:55.436Z,25.40
2019-01-21T03:19:55.419Z,25.40
2019-01-21T03:20:55.369Z,25.35
2019-01-21T03:21:55.316Z,25.43
2019-01-21T03:22:55.279Z,25.43
2019-01-21T03:23:55.235Z,25.36
2019-01-21T03:24:55.208Z,25.33
2019-01-21T03:25:55.133Z,25.33
2019-01-21T03:26:55.080Z,25.29
2019-01-21T03:27:55.057Z,25.22
2019-01-21T03:28:55.005Z,25.25
2019-01-21T03:29:54.959Z,25.17
2019-01-21T03:30:54.903Z,25.22
2019-01-21T03:31:54.873Z,25.26
2019-01-21T03:32:54.827Z,25.25
2019-01-21T03:33:54.800Z,25.22
2019-01-21T03:34:54.755Z,25.22
2019-01-21T03:35:54.702Z,25.13
2019-01-21T03:36:54.649Z,25.18
2019-01-21T03:37:54.598Z,25.13
2019-01-21T03:38:54.548Z,25.18
2019-01-21T03:39:54.509Z,25.18
2019-01-21T03:40:54.479Z,25.26
2019-01-21T03:41:54.433Z,25.25
2019-01-21T03:42:54.368Z,25.33
2019-01-21T03:43:54.324Z,25.31
2019-01-21T03:44:54.291Z,25.32
2019-01-21T03:45:54.243Z,25.31
2019-01-21T03:46:54.189Z,25.32
2019-01-21T03:47:54.153Z,25.41
2019-01-21T03:48:54.110Z,25.41
2019-01-21T03:49:54.063Z,25.43
2019-01-21T03:50:54.020Z,25.46
2019-01-21T03:51:53.979Z,25.43
2019-01-21T03:52:53.943Z,25.43
2019-01-21T03:53:53.887Z,25.40
2019-01-21T03:54:53.859Z,25.40
2019-01-21T03:55:53.788Z,25.43
2019-01-21T03:56:53.765Z,25.41
2019-01-21T03:57:53.699Z,25.38
2019-01-21T03:58:53.654Z,25.44
2019-01-21T03:59:53.622Z,25.50
2019-01-21T04:00:53.580Z,25.44
2019-01-21T04:01:53.535Z,25.44
2019-01-21T04:02:53.502Z,25.47
2019-01-21T04:03:53.439Z,25.47
2019-01-21T04:04:53.402Z,25.51
2019-01-21T04:05:53.352Z,25.48
2019-01-21T04:06:53.311Z,25.50
2019-01-21T04:07:53.253Z,25.53
2019-01-21T04:08:53.218Z,25.48
2019-01-21T04:09:53.181Z,25.55
2019-01-21T04:10:53.120Z,25.65
2019-01-21T04:11:53.075Z,25.48
2019-01-21T04:12:53.041Z,25.63
2019-01-21T04:13:53.000Z,25.63
2019-01-21T04:14:53.003Z,25.60
2019-01-21T04:15:52.930Z,25.66
2019-01-21T04:16:52.853Z,25.59
2019-01-21T04:17:52.818Z,25.62
2019-01-21T04:18:52.788Z,25.62
2019-01-21T04:19:52.741Z,25.66
2019-01-21T04:20:52.697Z,25.59
2019-01-21T04:21:52.640Z,25.62
2019-01-21T04:22:52.600Z,25.65
2019-01-21T04:23:52.556Z,25.65
2019-01-21T04:24:52.512Z,25.65
2019-01-21T04:25:52.469Z,25.60
2019-01-21T04:26:52.422Z,25.62
2019-01-21T04:27:52.377Z,25.62
2019-01-21T04:28:52.328Z,25.48
2019-01-21T04:29:52.297Z,25.54
2019-01-21T04:30:52.231Z,25.48
2019-01-21T04:31:52.215Z,25.55
2019-01-21T04:32:52.182Z,25.48
2019-01-21T04:33:52.123Z,25.55
2019-01-21T04:34:52.055Z,25.50
2019-01-21T04:35:52.018Z,25.54
2019-01-21T04:36:51.977Z,25.51
2019-01-21T04:37:51.929Z,25.53
2019-01-21T04:38:51.884Z,25.48
2019-01-21T04:39:51.862Z,25.53
2019-01-21T04:40:51.787Z,25.50
2019-01-21T04:41:51.763Z,25.53
2019-01-21T04:42:51.702Z,25.48
2019-01-21T04:43:51.662Z,25.53
2019-01-21T04:44:51.609Z,25.54
2019-01-21T04:45:51.566Z,25.46
2019-01-21T04:46:51.528Z,25.50
2019-01-21T04:47:51.489Z,25.41
2019-01-21T04:48:51.431Z,25.40
2019-01-21T04:49:51.411Z,25.54
2019-01-21T04:50:51.363Z,25.44
2019-01-21T04:51:51.308Z,25.51
2019-01-21T04:52:51.271Z,25.50
2019-01-21T04:53:51.253Z,25.44
2019-01-21T04:54:51.189Z,25.36
2019-01-21T04:55:51.135Z,25.43
2019-01-21T04:56:51.075Z,25.38
2019-01-21T04:57:51.052Z,25.47
2019-01-21T04:58:50.986Z,25.41
2019-01-21T04:59:50.941Z,25.41
2019-01-21T05:00:50.918Z,25.38
2019-01-21T05:01:50.852Z,25.33
2019-01-21T05:02:50.808Z,25.25
2019-01-21T05:03:50.789Z,25.18
2019-01-21T05:04:50.741Z,25.16
2019-01-21T05:05:50.696Z,25.17
2019-01-21T05:06:50.653Z,25.16
2019-01-21T05:07:50.600Z,25.08
2019-01-21T05:08:50.562Z,25.11
2019-01-21T05:09:50.496Z,25.06
2019-01-21T05:10:50.472Z,25.01
2019-01-21T05:11:50.408Z,25.01
2019-01-21T05:12:50.372Z,25.03
2019-01-21T05:13:50.325Z,24.99
2019-01-21T05:14:50.281Z,25.03
2019-01-21T05:15:50.247Z,24.92
2019-01-21T05:16:50.204Z,24.92
2019-01-21T05:17:50.145Z,25.03
2019-01-21T05:18:50.107Z,25.03
2019-01-21T05:19:50.050Z,25.07
2019-01-21T05:20:50.026Z,25.11
2019-01-21T05:21:49.990Z,25.13
2019-01-21T05:22:49.924Z,25.14
2019-01-21T05:23:49.883Z,25.21
2019-01-21T05:24:49.847Z,25.25
2019-01-21T05:25:49.789Z,25.14
2019-01-21T05:26:49.738Z,25.16
2019-01-21T05:27:49.714Z,24.96
2019-01-21T05:28:49.647Z,24.99
2019-01-21T05:29:49.638Z,25.04
2019-01-21T05:30:49.567Z,25.04
2019-01-21T05:31:49.535Z,25.03
2019-01-21T05:32:49.491Z,25.16
2019-01-21T05:33:49.454Z,25.13
2019-01-21T05:34:49.398Z,25.11
2019-01-21T05:35:49.349Z,25.18
2019-01-21T05:36:49.312Z,25.25
2019-01-21T05:37:49.254Z,25.25
2019-01-21T05:38:49.214Z,25.21
2019-01-21T05:39:49.179Z,25.26
2019-01-21T05:40:49.127Z,25.23
2019-01-21T05:41:49.080Z,25.26
2019-01-21T05:42:49.056Z,25.25
2019-01-21T05:43:48.991Z,25.32
2019-01-21T05:44:48.946Z,25.28
2019-01-21T05:45:48.889Z,25.33
2019-01-21T05:46:48.861Z,25.29
2019-01-21T05:47:48.822Z,25.31
2019-01-21T05:48:49.292Z,25.26
2019-01-21T05:49:48.732Z,25.28
2019-01-21T05:50:48.679Z,25.21
2019-01-21T05:51:48.632Z,25.13
2019-01-21T05:52:48.586Z,25.16
2019-01-21T05:53:48.546Z,25.04
2019-01-21T05:54:48.500Z,24.93
2019-01-21T05:55:48.465Z,24.88
2019-01-21T05:56:48.407Z,24.93
2019-01-21T05:57:48.365Z,24.95
2019-01-21T05:58:48.330Z,24.88
2019-01-21T05:59:48.297Z,24.95
2019-01-21T06:00:48.228Z,24.89
2019-01-21T06:01:48.196Z,24.99
2019-01-21T06:02:48.137Z,24.96
2019-01-21T06:03:48.085Z,24.86
2019-01-21T06:04:48.072Z,24.86
2019-01-21T06:05:48.009Z,24.96
2019-01-21T06:06:47.951Z,25.13
2019-01-21T06:07:47.915Z,25.04
2019-01-21T06:08:47.876Z,25.14
2019-01-21T06:09:47.831Z,25.17
2019-01-21T06:10:47.796Z,25.06
2019-01-21T06:11:47.749Z,25.07
2019-01-21T06:12:47.686Z,25.11
2019-01-21T06:13:47.652Z,25.16
2019-01-21T06:14:47.622Z,25.14
2019-01-21T06:15:47.570Z,25.17
2019-01-21T06:16:47.505Z,25.16
2019-01-21T06:17:47.494Z,25.25
2019-01-21T06:18:47.430Z,25.25
2019-01-21T06:19:47.393Z,25.21
2019-01-21T06:20:47.327Z,25.29
2019-01-21T06:21:47.303Z,25.33
2019-01-21T06:22:47.257Z,25.23
2019-01-21T06:23:47.214Z,25.13
2019-01-21T06:24:47.173Z,25.16
2019-01-21T06:25:47.116Z,25.11
2019-01-21T06:26:47.067Z,25.17
2019-01-21T06:27:47.035Z,25.06
2019-01-21T06:28:46.997Z,25.01
2019-01-21T06:29:46.952Z,25.07
2019-01-21T06:30:46.889Z,25.03
2019-01-21T06:31:46.848Z,24.96
2019-01-21T06:32:46.841Z,24.99
2019-01-21T06:33:46.766Z,25.13
2019-01-21T06:34:46.712Z,25.11
2019-01-21T06:35:46.666Z,25.11
2019-01-21T06:36:46.629Z,25.14
2019-01-21T06:37:46.581Z,25.13
2019-01-21T06:38:46.544Z,25.08
2019-01-21T06:39:46.508Z,25.16
2019-01-21T06:40:46.434Z,25.17
2019-01-21T06:41:46.399Z,25.25
2019-01-21T06:42:46.366Z,25.11
2019-01-21T06:43:46.309Z,25.17
2019-01-21T06:44:46.283Z,25.13
2019-01-21T06:45:46.219Z,25.14
2019-01-21T06:46:46.174Z,25.11
2019-01-21T06:47:46.130Z,25.11
2019-01-21T06:48:46.090Z,25.10
2019-01-21T06:49:46.042Z,25.11
2019-01-21T06:50:46.015Z,25.11
2019-01-21T06:51:45.956Z,25.13
2019-01-21T06:52:45.906Z,25.16
2019-01-21T06:53:45.854Z,25.11
2019-01-21T06:54:45.817Z,25.17
2019-01-21T06:55:45.764Z,25.17
2019-01-21T06:56:47.549Z,25.14
2019-01-21T06:57:45.688Z,25.13
2019-01-21T06:58:45.651Z,25.13
2019-01-21T06:59:45.607Z,25.17
2019-01-21T07:00:45.549Z,25.17
2019-01-21T07:01:45.507Z,25.11
2019-01-21T07:02:45.460Z,25.13
2019-01-21T07:03:45.415Z,25.04
2019-01-21T07:04:45.374Z,25.03
2019-01-21T07:05:45.326Z,25.01
2019-01-21T07:06:45.293Z,24.89
2019-01-21T07:07:45.242Z,24.89
2019-01-21T07:08:45.192Z,24.89
2019-01-21T07:09:45.141Z,24.95
2019-01-21T07:10:45.115Z,24.93
2019-01-21T07:11:45.070Z,24.91
2019-01-21T07:12:45.012Z,24.95
2019-01-21T07:13:44.981Z,24.98
2019-01-21T07:14:44.926Z,24.89
2019-01-21T07:15:44.892Z,24.96
2019-01-21T07:16:44.847Z,24.96
2019-01-21T07:17:44.789Z,24.91
2019-01-21T07:18:44.749Z,24.88
2019-01-21T07:19:46.288Z,24.88
2019-01-21T07:20:44.668Z,24.91
2019-01-21T07:21:44.610Z,24.88
2019-01-21T07:22:44.565Z,24.88
2019-01-21T07:23:44.521Z,24.91
2019-01-21T07:24:44.476Z,24.86
2019-01-21T07:25:44.431Z,24.98
2019-01-21T07:26:44.400Z,24.96
2019-01-21T07:27:44.297Z,24.93
2019-01-21T07:28:44.303Z,24.92
2019-01-21T07:29:44.245Z,24.93
2019-01-21T07:30:44.208Z,24.92
2019-01-21T07:31:44.155Z,24.95
2019-01-21T07:32:44.110Z,24.92
2019-01-21T07:33:44.087Z,24.93
2019-01-21T07:34:44.021Z,24.95
2019-01-21T07:35:43.984Z,24.92
2019-01-21T07:36:43.953Z,24.99
2019-01-21T07:37:43.895Z,24.92
2019-01-21T07:38:43.842Z,24.96
2019-01-21T07:39:43.805Z,24.91
2019-01-21T07:40:43.774Z,24.88
2019-01-21T07:41:43.709Z,24.84
2019-01-21T07:42:43.671Z,24.89
2019-01-21T07:43:43.659Z,24.88
2019-01-21T07:44:43.606Z,24.85
2019-01-21T07:45:43.543Z,24.78
2019-01-21T07:46:43.503Z,24.84
2019-01-21T07:47:43.460Z,24.86
2019-01-21T07:48:43.412Z,24.81
2019-01-21T07:49:43.350Z,24.85
2019-01-21T07:50:43.319Z,24.86
2019-01-21T07:51:43.278Z,24.93
2019-01-21T07:52:43.228Z,24.88
2019-01-21T07:53:43.184Z,24.93
2019-01-21T07:54:43.159Z,24.89
2019-01-21T07:55:43.103Z,24.88
2019-01-21T07:56:43.045Z,24.88
2019-01-21T07:57:43.004Z,24.92
2019-01-21T07:58:42.960Z,24.91
2019-01-21T07:59:42.915Z,24.86
2019-01-21T08:00:42.884Z,24.84
2019-01-21T08:01:42.812Z,24.86
2019-01-21T08:02:42.789Z,24.80
2019-01-21T08:03:42.723Z,24.74
2019-01-21T08:04:42.686Z,24.81
2019-01-21T08:05:42.656Z,24.70
2019-01-21T08:06:42.603Z,24.77
2019-01-21T08:07:42.544Z,24.80
2019-01-21T08:08:42.507Z,24.77
2019-01-21T08:09:42.462Z,24.86
2019-01-21T08:10:42.409Z,24.77
2019-01-21T08:11:42.373Z,24.78
2019-01-21T08:12:42.341Z,24.78
2019-01-21T08:13:42.287Z,24.73
2019-01-21T08:14:42.251Z,24.78
2019-01-21T08:15:42.194Z,24.77
2019-01-21T08:16:42.150Z,24.74
2019-01-21T08:17:42.104Z,24.74
2019-01-21T08:18:42.059Z,24.80
2019-01-21T08:19:42.006Z,24.73
2019-01-21T08:20:41.975Z,24.65
2019-01-21T08:21:41.927Z,24.65
2019-01-21T08:22:41.872Z,24.70
2019-01-21T08:23:41.848Z,24.77
2019-01-21T08:24:41.795Z,24.74
2019-01-21T08:25:41.754Z,24.74
2019-01-21T08:26:41.700Z,24.74
2019-01-21T08:27:41.681Z,24.74
2019-01-21T08:28:41.615Z,24.86
2019-01-21T08:29:41.567Z,24.76
2019-01-21T08:30:41.539Z,24.70
2019-01-21T08:31:41.468Z,24.77
2019-01-21T08:32:41.444Z,24.76
2019-01-21T08:33:41.379Z,24.81
2019-01-21T08:34:41.355Z,24.76
2019-01-21T08:35:41.301Z,24.70
2019-01-21T08:36:41.252Z,24.77
2019-01-21T08:37:41.207Z,24.73
2019-01-21T08:38:41.167Z,24.76
2019-01-21T08:39:41.110Z,24.70
2019-01-21T08:40:41.079Z,24.77
2019-01-21T08:41:41.020Z,24.69
2019-01-21T08:42:40.999Z,24.80
2019-01-21T08:43:40.948Z,24.80
2019-01-21T08:44:40.885Z,24.78
2019-01-21T08:45:40.848Z,24.77
2019-01-21T08:46:40.830Z,24.77
2019-01-21T08:47:40.751Z,24.77
2019-01-21T08:48:40.706Z,24.80
2019-01-21T08:49:40.715Z,24.85
2019-01-21T08:50:40.650Z,24.78
2019-01-21T08:51:40.584Z,24.89
2019-01-21T08:52:40.539Z,24.89
2019-01-21T08:53:40.495Z,24.95
2019-01-21T08:54:40.459Z,24.95
2019-01-21T08:55:40.413Z,24.96
2019-01-21T08:56:40.361Z,24.96
2019-01-21T08:57:40.315Z,24.89
2019-01-21T08:58:40.301Z,24.81
2019-01-21T08:59:40.238Z,24.88
2019-01-21T09:00:40.169Z,24.91
2019-01-21T09:01:40.097Z,24.91
2019-01-21T09:02:40.086Z,24.96
2019-01-21T09:03:40.057Z,24.91
2019-01-21T09:04:40.011Z,24.98
2019-01-21T09:05:39.945Z,24.93
2019-01-21T09:06:39.912Z,25.07
2019-01-21T09:07:39.894Z,25.07
2019-01-21T09:08:39.834Z,25.06
2019-01-21T09:09:39.781Z,25.03
2019-01-21T09:10:39.742Z,25.14
2019-01-21T09:11:39.678Z,25.18
2019-01-21T09:12:39.673Z,25.22
2019-01-21T09:13:40.670Z,25.32
2019-01-21T09:14:39.542Z,25.31
2019-01-21T09:15:39.519Z,25.47
2019-01-21T09:16:39.474Z,25.54
2019-01-21T09:17:39.408Z,25.65
2019-01-21T09:18:39.377Z,25.72
2019-01-21T09:19:39.330Z,25.69
2019-01-21T09:20:39.283Z,25.77
2019-01-21T09:21:39.240Z,25.75
2019-01-21T09:22:39.199Z,25.78
2019-01-21T09:23:39.158Z,25.81
2019-01-21T09:24:39.107Z,25.85
2019-01-21T09:25:39.054Z,25.98
2019-01-21T09:26:39.032Z,25.99
2019-01-21T09:27:38.979Z,25.90
2019-01-21T09:28:38.922Z,25.90
2019-01-21T09:29:38.879Z,25.88
2019-01-21T09:30:38.842Z,25.83
2019-01-21T09:31:38.804Z,25.84
2019-01-21T09:32:38.755Z,25.87
2019-01-21T09:33:38.716Z,26.03
2019-01-21T09:34:38.670Z,26.02
2019-01-21T09:35:38.648Z,26.06
2019-01-21T09:36:38.594Z,26.10
2019-01-21T09:37:38.543Z,26.05
2019-01-21T09:38:38.487Z,26.28
2019-01-21T09:39:38.456Z,26.56
2019-01-21T09:40:38.401Z,26.80
2019-01-21T09:41:38.366Z,26.85
2019-01-21T09:42:38.328Z,26.93
2019-01-21T09:43:38.297Z,27.00
2019-01-21T09:44:38.272Z,26.96
2019-01-21T09:45:38.202Z,27.07
2019-01-21T09:46:38.159Z,27.11
2019-01-21T09:47:38.120Z,27.26
2019-01-21T09:48:38.088Z,27.35
2019-01-21T09:49:43.580Z,27.64
2019-01-21T09:50:38.003Z,27.85
2019-01-21T09:51:37.942Z,27.89
2019-01-21T09:52:37.915Z,28.07
2019-01-21T09:53:37.864Z,28.25
2019-01-21T09:54:37.836Z,28.23
2019-01-21T09:55:37.796Z,28.23
2019-01-21T09:56:37.748Z,28.11
2019-01-21T09:57:37.696Z,28.10
2019-01-21T09:58:37.659Z,28.05
2019-01-21T09:59:37.686Z,28.14
2019-01-21T10:00:37.591Z,28.39
2019-01-21T10:01:37.543Z,28.41
2019-01-21T10:02:37.495Z,28.38
2019-01-21T10:03:37.462Z,28.32
2019-01-21T10:04:37.424Z,28.33
2019-01-21T10:05:37.376Z,28.51
2019-01-21T10:06:37.350Z,28.78
2019-01-21T10:07:37.334Z,28.96
2019-01-21T10:08:37.276Z,29.22
2019-01-21T10:09:37.243Z,29.26
2019-01-21T10:10:37.225Z,29.49
2019-01-21T10:11:37.167Z,29.86
2019-01-21T10:12:37.120Z,30.02
2019-01-21T10:13:37.032Z,30.12
2019-01-21T10:14:37.056Z,30.05
2019-01-21T10:15:37.018Z,29.84
2019-01-21T10:16:36.970Z,29.93
2019-01-21T10:17:36.942Z,30.05
2019-01-21T10:18:36.898Z,30.25
2019-01-21T10:19:36.876Z,30.21
2019-01-21T10:20:36.834Z,30.19
2019-01-21T10:21:36.798Z,30.24
2019-01-21T10:22:36.741Z,30.40
2019-01-21T10:23:36.708Z,30.75
2019-01-21T10:24:36.671Z,30.68
2019-01-21T10:25:36.644Z,30.70
2019-01-21T10:26:36.609Z,30.80
2019-01-21T10:27:36.599Z,30.97
2019-01-21T10:28:36.534Z,30.94
2019-01-21T10:29:36.498Z,30.78
2019-01-21T10:30:36.478Z,30.63
2019-01-21T10:31:36.428Z,30.43
2019-01-21T10:32:36.407Z,30.25
2019-01-21T10:33:36.383Z,30.19
2019-01-21T10:34:36.336Z,30.27
2019-01-21T10:35:36.290Z,30.25
2019-01-21T10:36:36.328Z,30.13
2019-01-21T10:37:36.235Z,30.16
2019-01-21T10:38:36.197Z,30.24
2019-01-21T10:39:36.154Z,30.32
2019-01-21T10:40:36.137Z,30.37
2019-01-21T10:41:36.138Z,30.30
2019-01-21T10:42:36.054Z,30.25
2019-01-21T10:43:36.024Z,30.15
2019-01-21T10:44:36.011Z,30.13
2019-01-21T10:45:35.974Z,30.16
2019-01-21T10:46:35.946Z,30.03
2019-01-21T10:47:35.897Z,29.91
2019-01-21T10:48:35.872Z,29.94
2019-01-21T10:49:35.825Z,30.05
2019-01-21T10:50:36.131Z,30.02
2019-01-21T10:51:35.756Z,29.98
2019-01-21T10:52:35.713Z,29.94
2019-01-21T10:53:35.719Z,29.94
2019-01-21T10:54:35.663Z,29.75
2019-01-21T10:55:35.606Z,29.68
2019-01-21T10:56:35.574Z,29.66
2019-01-21T10:57:35.554Z,29.38
2019-01-21T10:58:35.504Z,29.26
2019-01-21T10:59:35.481Z,29.56
2019-01-21T11:00:35.419Z,29.49
2019-01-21T11:01:35.403Z,29.54
2019-01-21T11:02:35.356Z,29.54
2019-01-21T11:03:35.334Z,29.45
2019-01-21T11:04:35.308Z,29.42
2019-01-21T11:05:35.261Z,29.41
2019-01-21T11:06:35.197Z,29.47
2019-01-21T11:07:35.171Z,29.59
2019-01-21T11:08:35.133Z,29.65
2019-01-21T11:09:35.084Z,29.51
2019-01-21T11:10:35.041Z,29.54
2019-01-21T11:11:34.992Z,29.56
2019-01-21T11:12:34.960Z,29.53
2019-01-21T11:13:34.914Z,29.54
2019-01-21T11:14:34.894Z,29.50
2019-01-21T11:15:34.842Z,29.51
2019-01-21T11:16:34.830Z,29.49
2019-01-21T11:17:34.798Z,29.63
2019-01-21T11:18:34.720Z,29.61
2019-01-21T11:19:34.680Z,29.60
2019-01-21T11:20:34.658Z,29.63
2019-01-21T11:21:34.598Z,29.71
2019-01-21T11:22:34.567Z,29.63
2019-01-21T11:23:34.531Z,29.41
2019-01-21T11:24:34.478Z,29.41
2019-01-21T11:25:34.443Z,29.24
2019-01-21T11:26:34.399Z,29.35
2019-01-21T11:27:34.354Z,29.45
2019-01-21T11:28:34.319Z,29.42
2019-01-21T11:29:34.279Z,29.20
2019-01-21T11:30:34.225Z,29.32
2019-01-21T11:31:34.184Z,29.53
2019-01-21T11:32:34.109Z,29.66
2019-01-21T11:33:34.114Z,29.86
2019-01-21T11:34:34.072Z,29.86
2019-01-21T11:35:34.029Z,29.75
2019-01-21T11:36:33.988Z,29.78
2019-01-21T11:37:33.946Z,29.90
2019-01-21T11:38:33.913Z,30.03
2019-01-21T11:39:33.858Z,30.00
2019-01-21T11:40:33.829Z,30.15
2019-01-21T11:41:33.810Z,30.15
2019-01-21T11:42:33.743Z,30.21
2019-01-21T11:43:33.701Z,30.31
2019-01-21T11:44:33.674Z,30.27
2019-01-21T11:45:33.627Z,30.23
2019-01-21T11:46:33.579Z,30.24
2019-01-21T11:47:33.551Z,30.31
2019-01-21T11:48:33.511Z,30.35
2019-01-21T11:49:33.486Z,30.50
2019-01-21T11:50:33.431Z,30.75
2019-01-21T11:51:33.368Z,30.70
2019-01-21T11:52:33.342Z,30.77
2019-01-21T11:53:33.287Z,30.88
2019-01-21T11:54:33.249Z,30.88
2019-01-21T11:55:33.212Z,30.68
2019-01-21T11:56:33.185Z,30.72
2019-01-21T11:57:33.130Z,30.80
2019-01-21T11:58:33.103Z,30.81
2019-01-21T11:59:33.045Z,30.77
2019-01-21T12:00:33.022Z,30.72
2019-01-21T12:01:32.961Z,30.77
2019-01-21T12:02:32.941Z,30.84
2019-01-21T12:03:32.879Z,30.81
2019-01-21T12:04:32.856Z,30.80
2019-01-21T12:05:32.769Z,30.77
2019-01-21T12:06:32.766Z,30.80
2019-01-21T12:07:32.738Z,30.77
2019-01-21T12:08:32.676Z,30.92
2019-01-21T12:09:32.675Z,30.97
2019-01-21T12:10:32.621Z,30.97
2019-01-21T12:11:32.575Z,30.91
2019-01-21T12:12:32.523Z,31.12
2019-01-21T12:13:32.473Z,31.22
2019-01-21T12:14:32.457Z,31.17
2019-01-21T12:15:32.413Z,31.37
2019-01-21T12:16:32.361Z,31.37
2019-01-21T12:17:32.324Z,31.47
2019-01-21T12:18:32.280Z,31.40
2019-01-21T12:19:32.245Z,31.37
2019-01-21T12:20:32.202Z,31.28
2019-01-21T12:21:32.154Z,31.21
2019-01-21T12:22:32.123Z,31.17
2019-01-21T12:23:32.078Z,31.10
2019-01-21T12:24:32.050Z,31.06
2019-01-21T12:25:32.002Z,30.96
2019-01-21T12:26:31.961Z,30.94
2019-01-21T12:27:31.916Z,31.10
2019-01-21T12:28:31.867Z,31.21
2019-01-21T12:29:31.826Z,31.31
2019-01-21T12:30:31.799Z,31.24
2019-01-21T12:31:31.789Z,31.18
2019-01-21T12:32:31.731Z,31.22
2019-01-21T12:33:31.678Z,31.42
2019-01-21T12:34:31.664Z,31.40
2019-01-21T12:35:31.606Z,31.47
2019-01-21T12:36:31.584Z,31.43
2019-01-21T12:37:31.525Z,31.44
2019-01-21T12:38:31.480Z,31.59
2019-01-21T12:39:31.431Z,31.65
2019-01-21T12:40:31.424Z,31.70
2019-01-21T12:41:31.352Z,31.80
2019-01-21T12:42:31.316Z,31.97
2019-01-21T12:43:31.271Z,31.99
2019-01-21T12:44:31.236Z,32.01
2019-01-21T12:45:31.182Z,32.00
2019-01-21T12:46:31.199Z,32.03
2019-01-21T12:47:31.104Z,31.89
2019-01-21T12:48:31.121Z,31.76
2019-01-21T12:49:31.036Z,31.78
2019-01-21T12:50:30.995Z,31.76
2019-01-21T12:51:30.969Z,31.66